McIntosh, South Dakota
Current Conditions -  °F | °C
As of 3:52 AM on Thursday 27 Nov 2014 (Local Time) from KMBG Reporting Station
Haze Haze  
Wind Chill: -15°   Ceiling: 500
Heat Index:   Visibility: 4mi
Dew Point: -2°   Wind: 12mph
Humidity: 83%   Direction: 120°ESE
Pressure: 30.37"   Gusts: NA
Location:  45.92°N, 101.35°W
Report Text: KMBG 271052Z AUTO 12010KT 4SM BR OVC005 M17/M19 A3037 RMK AO2 SNB0954E28 SLP326 P0000 T11671189
Loading
Personal Weather Stations






























Interactive Weather Map New forecast layout! Learn more

10-Day Weather Forecast

Advertisements
Track Severe Weather on mobile